createdAt,value
2018-08-18T00:00:22.325Z,81.90
2018-08-18T00:02:52.020Z,82.20
2018-08-18T00:05:20.620Z,81.90
2018-08-18T00:07:49.747Z,81.80
2018-08-18T00:10:20.963Z,81.80
2018-08-18T00:12:49.577Z,81.70
2018-08-18T00:15:18.655Z,82.70
2018-08-18T00:17:47.296Z,81.50
2018-08-18T00:20:23.612Z,82.00
2018-08-18T00:22:52.208Z,82.50
2018-08-18T00:25:20.789Z,83.20
2018-08-18T00:27:49.318Z,83.30
2018-08-18T00:30:23.126Z,83.70
2018-08-18T00:32:53.042Z,84.20
2018-08-18T00:35:21.660Z,83.90
2018-08-18T00:37:50.261Z,84.10
2018-08-18T00:40:18.825Z,83.90
2018-08-18T00:42:47.911Z,83.90
2018-08-18T00:45:16.477Z,83.80
2018-08-18T00:47:45.077Z,83.60
2018-08-18T00:50:22.592Z,83.50
2018-08-18T00:52:51.182Z,83.20
2018-08-18T00:55:19.745Z,83.10
2018-08-18T00:57:48.505Z,83.50
2018-08-18T01:00:17.118Z,83.70
2018-08-18T01:02:45.657Z,84.00
2018-08-18T01:05:14.300Z,84.10
2018-08-18T01:07:42.954Z,84.30
2018-08-18T01:10:11.555Z,85.00
2018-08-18T01:12:40.759Z,84.00
2018-08-18T01:15:09.506Z,84.00
2018-08-18T01:17:38.854Z,84.60
2018-08-18T01:20:08.118Z,85.00
2018-08-18T01:22:36.740Z,83.50
2018-08-18T01:25:06.224Z,84.20
2018-08-18T01:27:45.465Z,84.50
2018-08-18T01:30:14.092Z,83.70
2018-08-18T01:32:43.277Z,83.30
2018-08-18T01:35:12.001Z,82.60
2018-08-18T01:37:41.309Z,82.80
2018-08-18T01:40:10.508Z,82.00
2018-08-18T01:42:39.260Z,81.40
2018-08-18T01:45:07.925Z,82.00
2018-08-18T01:47:36.640Z,82.20
2018-08-18T01:50:10.750Z,81.50
2018-08-18T01:52:39.463Z,81.40
2018-08-18T01:55:08.804Z,82.60
2018-08-18T01:57:37.401Z,82.50
2018-08-18T02:00:27.985Z,82.10
2018-08-18T02:02:56.821Z,81.60
2018-08-18T02:05:27.099Z,81.40
2018-08-18T02:07:56.089Z,81.30
2018-08-18T02:10:25.148Z,81.90
2018-08-18T02:13:04.074Z,82.90
2018-08-18T02:15:33.213Z,82.60
2018-08-18T02:18:02.557Z,83.10
2018-08-18T02:20:31.589Z,83.70
2018-08-18T02:23:00.457Z,83.00
2018-08-18T02:25:29.029Z,82.90
2018-08-18T02:27:58.586Z,82.90
2018-08-18T02:30:27.247Z,82.40
2018-08-18T02:32:55.966Z,83.40
2018-08-18T02:35:24.641Z,83.60
2018-08-18T02:37:54.183Z,83.80
2018-08-18T02:40:22.731Z,84.40
2018-08-18T02:42:51.521Z,85.10
2018-08-18T02:45:20.143Z,84.60
2018-08-18T02:47:51.082Z,84.90
2018-08-18T02:50:19.764Z,85.10
2018-08-18T02:52:48.315Z,85.50
2018-08-18T02:55:16.924Z,85.60
2018-08-18T02:57:45.577Z,86.00
2018-08-18T03:00:34.992Z,85.70
2018-08-18T03:03:03.642Z,85.90
2018-08-18T03:05:32.358Z,86.50
2018-08-18T03:08:01.097Z,86.30
2018-08-18T03:10:30.138Z,86.30
2018-08-18T03:13:00.329Z,86.60
2018-08-18T03:16:03.002Z,87.10
2018-08-18T03:18:36.277Z,86.70
2018-08-18T03:21:05.095Z,87.00
2018-08-18T03:23:34.343Z,86.90
2018-08-18T03:26:03.166Z,86.00
2018-08-18T03:29:04.117Z,85.70
2018-08-18T03:31:32.638Z,85.60
2018-08-18T03:34:01.388Z,85.20
2018-08-18T03:36:31.514Z,86.20
2018-08-18T03:39:00.450Z,85.60
2018-08-18T03:41:29.765Z,85.80
2018-08-18T03:43:59.075Z,85.70
2018-08-18T03:46:27.665Z,86.30
2018-08-18T03:48:56.458Z,85.60
2018-08-18T03:51:31.199Z,85.10
2018-08-18T03:54:00.864Z,85.40
2018-08-18T03:56:29.638Z,85.90
2018-08-18T03:58:59.181Z,86.20
2018-08-18T04:02:03.397Z,86.30
2018-08-18T04:04:36.620Z,86.40
2018-08-18T04:07:08.172Z,86.40
2018-08-18T04:09:38.310Z,86.90
2018-08-18T04:12:09.361Z,87.10
2018-08-18T04:14:44.220Z,87.70
2018-08-18T04:17:31.357Z,87.10
2018-08-18T04:20:00.401Z,87.70
2018-08-18T04:22:30.202Z,87.80
2018-08-18T04:25:04.083Z,87.80
2018-08-18T04:27:41.843Z,88.00
2018-08-18T04:30:14.996Z,88.10
2018-08-18T04:32:55.653Z,88.20
2018-08-18T04:35:27.090Z,87.90
2018-08-18T04:37:58.108Z,87.90
2018-08-18T04:40:27.641Z,88.30
2018-08-18T04:42:57.233Z,88.50
2018-08-18T04:45:26.780Z,87.70
2018-08-18T04:47:55.811Z,88.00
2018-08-18T04:50:24.809Z,87.60
2018-08-18T04:52:54.595Z,87.90
2018-08-18T04:55:25.082Z,87.50
2018-08-18T04:57:53.878Z,87.60
2018-08-18T05:00:23.094Z,87.60
2018-08-18T05:02:57.183Z,87.30
2018-08-18T05:05:28.559Z,87.60
2018-08-18T05:08:00.601Z,86.70
2018-08-18T05:10:29.855Z,87.70
2018-08-18T05:12:58.786Z,87.00
2018-08-18T05:15:27.596Z,86.80
2018-08-18T05:17:56.535Z,86.90
2018-08-18T05:20:26.753Z,87.80
2018-08-18T05:22:57.114Z,86.40
2018-08-18T05:25:31.172Z,87.20
2018-08-18T05:28:01.071Z,86.90
2018-08-18T05:30:30.034Z,87.50
2018-08-18T05:32:59.080Z,87.90
2018-08-18T05:35:28.285Z,87.80
2018-08-18T05:37:58.487Z,87.30
2018-08-18T05:40:27.285Z,86.40
2018-08-18T05:42:56.251Z,86.40
2018-08-18T05:45:27.992Z,86.30
2018-08-18T05:47:56.849Z,87.20
2018-08-18T05:50:26.498Z,86.60
2018-08-18T05:53:28.483Z,86.20
2018-08-18T05:55:57.770Z,86.70
2018-08-18T05:58:26.677Z,85.90
2018-08-18T06:01:02.316Z,84.20
2018-08-18T06:03:31.326Z,84.30
2018-08-18T06:06:00.072Z,84.10
2018-08-18T06:08:29.016Z,82.40
2018-08-18T06:10:57.768Z,82.00
2018-08-18T06:13:26.505Z,82.40
2018-08-18T06:16:08.596Z,81.50
2018-08-18T06:18:38.490Z,81.70
2018-08-18T06:21:07.746Z,81.60
2018-08-18T06:23:38.377Z,81.50
2018-08-18T06:26:08.282Z,81.10
2018-08-18T06:28:37.391Z,81.00
2018-08-18T06:31:06.752Z,81.70
2018-08-18T06:33:36.730Z,80.70
2018-08-18T06:36:10.071Z,80.50
2018-08-18T06:38:39.137Z,79.90
2018-08-18T06:41:07.960Z,79.20
2018-08-18T06:43:36.902Z,79.80
2018-08-18T06:46:07.083Z,79.20
2018-08-18T06:48:36.814Z,79.90
2018-08-18T06:51:06.113Z,80.00
2018-08-18T06:53:40.138Z,79.70
2018-08-18T06:56:09.437Z,79.60
2018-08-18T06:58:38.599Z,78.80
2018-08-18T07:01:09.208Z,78.50
2018-08-18T07:03:43.263Z,79.20
2018-08-18T07:06:14.280Z,78.70
2018-08-18T07:11:51.238Z,79.20
2018-08-18T07:14:20.812Z,76.80
2018-08-18T07:16:49.957Z,75.40
2018-08-18T07:19:32.161Z,76.20
2018-08-18T07:22:00.988Z,76.00
2018-08-18T07:24:29.820Z,76.20
2018-08-18T07:27:00.375Z,75.70
2018-08-18T07:29:34.141Z,74.90
2018-08-18T07:32:03.233Z,73.60
2018-08-18T07:34:34.358Z,74.00
2018-08-18T07:39:37.313Z,71.90
2018-08-18T07:42:06.751Z,71.60
2018-08-18T07:44:38.421Z,65.80
2018-08-18T07:47:12.513Z,64.30
2018-08-18T07:49:41.730Z,59.40
2018-08-18T07:52:11.326Z,55.00
2018-08-18T07:54:40.087Z,54.30
2018-08-18T07:57:09.425Z,54.90
2018-08-18T07:59:38.223Z,48.00
2018-08-18T08:02:07.800Z,49.20
2018-08-18T08:04:40.428Z,49.60
2018-08-18T08:07:12.832Z,48.10
2018-08-18T08:09:48.013Z,48.20
2018-08-18T08:12:16.992Z,43.30
2018-08-18T08:14:45.781Z,45.10
2018-08-18T08:17:18.538Z,44.20
2018-08-18T08:19:47.290Z,46.70
2018-08-18T08:22:16.111Z,44.40
2018-08-18T08:24:45.294Z,46.60
2018-08-18T08:27:14.937Z,43.40
2018-08-18T08:29:43.678Z,43.10
2018-08-18T08:32:13.278Z,44.50
2018-08-18T08:34:46.110Z,44.40
2018-08-18T08:37:17.193Z,44.10
2018-08-18T08:39:48.013Z,45.10
2018-08-18T08:42:17.436Z,46.00
2018-08-18T08:44:46.907Z,45.90
2018-08-18T08:47:15.843Z,47.90
2018-08-18T08:49:44.613Z,48.50
2018-08-18T08:52:13.398Z,48.40
2018-08-18T08:54:42.169Z,48.90
2018-08-18T08:57:11.937Z,49.50
2018-08-18T08:59:41.582Z,51.80
2018-08-18T09:02:18.773Z,50.80
2018-08-18T09:04:48.085Z,48.30
2018-08-18T09:07:16.709Z,49.10
2018-08-18T09:09:46.473Z,48.10
2018-08-18T09:12:15.069Z,47.30
2018-08-18T09:14:49.096Z,46.60
2018-08-18T09:17:18.731Z,44.70
2018-08-18T09:19:47.442Z,43.70
2018-08-18T09:22:23.656Z,43.70
2018-08-18T09:24:52.409Z,41.20
2018-08-18T09:27:21.116Z,41.50
2018-08-18T09:29:50.001Z,40.80
2018-08-18T09:32:19.278Z,41.00
2018-08-18T09:34:52.226Z,40.80
2018-08-18T09:37:22.013Z,39.30
2018-08-18T09:39:58.545Z,39.40
2018-08-18T09:42:27.678Z,40.00
2018-08-18T09:44:56.643Z,40.00
2018-08-18T09:47:26.333Z,40.20
2018-08-18T09:49:56.131Z,38.50
2018-08-18T09:52:25.291Z,38.50
2018-08-18T09:54:55.176Z,37.30
2018-08-18T09:57:25.389Z,41.50
2018-08-18T09:59:59.802Z,40.80
2018-08-18T10:05:15.073Z,39.50
2018-08-18T10:07:57.189Z,39.50
2018-08-18T10:10:26.005Z,37.10
2018-08-18T10:12:55.934Z,39.60
2018-08-18T10:15:25.353Z,39.20
2018-08-18T10:17:54.080Z,38.80
2018-08-18T10:20:22.791Z,37.80
2018-08-18T10:27:23.941Z,39.60
2018-08-18T10:30:15.399Z,40.60
2018-08-18T10:32:51.222Z,40.10
2018-08-18T10:35:32.145Z,40.20
2018-08-18T10:42:39.169Z,39.20
2018-08-18T10:45:15.716Z,39.70
2018-08-18T10:47:47.158Z,40.20
2018-08-18T10:51:26.423Z,37.60
2018-08-18T10:53:56.406Z,41.30
2018-08-18T10:59:18.800Z,40.20
2018-08-18T11:02:03.357Z,42.20
2018-08-18T11:04:34.251Z,42.30
2018-08-18T11:07:04.910Z,40.40
2018-08-18T11:09:34.243Z,42.30
2018-08-18T11:12:03.790Z,41.00
2018-08-18T11:14:32.842Z,43.00
2018-08-18T11:17:01.461Z,43.30
2018-08-18T11:19:30.138Z,43.30
2018-08-18T11:22:10.102Z,43.00
2018-08-18T11:24:38.739Z,42.30
2018-08-18T11:27:07.764Z,41.30
2018-08-18T11:29:36.320Z,41.70
2018-08-18T11:32:04.912Z,42.40
2018-08-18T11:34:33.516Z,41.70
2018-08-18T11:37:04.789Z,43.60
2018-08-18T11:39:33.997Z,42.90
2018-08-18T11:42:02.575Z,42.80
2018-08-18T11:44:31.165Z,44.90
2018-08-18T11:47:00.268Z,43.30
2018-08-18T11:49:28.795Z,42.30
2018-08-18T11:51:57.360Z,41.80
2018-08-18T11:54:26.049Z,42.80
2018-08-18T11:56:55.658Z,40.80
2018-08-18T11:59:24.243Z,41.40
2018-08-18T12:01:55.600Z,42.20
2018-08-18T12:04:24.667Z,41.60
2018-08-18T12:06:57.800Z,42.80
2018-08-18T12:09:27.197Z,41.10
2018-08-18T12:11:55.818Z,41.00
2018-08-18T12:14:25.290Z,41.50
2018-08-18T12:16:53.913Z,42.40
2018-08-18T12:19:22.862Z,41.80
2018-08-18T12:21:51.609Z,41.20
2018-08-18T12:24:21.747Z,42.30
2018-08-18T12:27:01.726Z,42.00
2018-08-18T12:29:31.335Z,42.00
2018-08-18T12:32:00.471Z,41.30
2018-08-18T12:34:31.419Z,42.40
2018-08-18T12:37:00.331Z,41.50
2018-08-18T12:39:29.581Z,42.00
2018-08-18T12:42:04.768Z,42.80
2018-08-18T12:44:35.313Z,42.80
2018-08-18T12:47:04.321Z,43.90
2018-08-18T12:49:33.142Z,43.80
2018-08-18T12:52:01.910Z,45.10
2018-08-18T12:54:30.709Z,43.70
2018-08-18T12:56:59.365Z,44.50
2018-08-18T12:59:27.975Z,43.10
2018-08-18T13:01:56.675Z,42.90
2018-08-18T13:04:25.387Z,42.30
2018-08-18T13:06:54.373Z,44.30
2018-08-18T13:09:26.234Z,44.10
2018-08-18T13:11:56.411Z,43.50
2018-08-18T13:14:28.204Z,41.80
2018-08-18T13:16:58.910Z,41.60
2018-08-18T13:19:34.545Z,41.40
2018-08-18T13:22:03.552Z,42.70
2018-08-18T13:24:33.010Z,42.00
2018-08-18T13:27:02.990Z,41.00
2018-08-18T13:29:32.713Z,40.30
2018-08-18T13:32:01.537Z,39.90
2018-08-18T13:34:32.216Z,39.80
2018-08-18T13:37:05.897Z,39.30
2018-08-18T13:39:34.791Z,38.10
2018-08-18T13:42:24.047Z,41.20
2018-08-18T13:44:57.766Z,39.00
2018-08-18T13:47:26.530Z,39.50
2018-08-18T13:50:02.302Z,39.40
2018-08-18T13:52:51.705Z,38.90
2018-08-18T13:58:19.424Z,38.70
2018-08-18T14:00:52.236Z,39.00
2018-08-18T14:03:31.823Z,38.90
2018-08-18T14:08:46.988Z,38.60
2018-08-18T14:11:20.754Z,38.10
2018-08-18T14:13:49.508Z,38.60
2018-08-18T14:16:18.313Z,38.00
2018-08-18T14:18:47.147Z,39.40
2018-08-18T14:21:16.420Z,38.50
2018-08-18T14:23:45.435Z,39.70
2018-08-18T14:26:18.681Z,39.50
2018-08-18T14:28:48.572Z,39.20
2018-08-18T14:31:17.365Z,38.10
2018-08-18T14:33:46.329Z,38.90
2018-08-18T14:36:16.207Z,38.00
2018-08-18T14:38:48.549Z,40.40
2018-08-18T14:41:51.256Z,39.30
2018-08-18T14:44:19.871Z,38.10
2018-08-18T14:46:49.539Z,39.40
2018-08-18T14:49:20.638Z,39.40
2018-08-18T14:51:49.404Z,39.70
2018-08-18T14:54:22.559Z,41.80
2018-08-18T14:56:51.102Z,42.40
2018-08-18T14:59:23.773Z,42.80
2018-08-18T15:01:53.110Z,41.60
2018-08-18T15:04:22.331Z,40.60
2018-08-18T15:06:50.905Z,42.10
2018-08-18T15:09:31.918Z,40.70
2018-08-18T15:12:01.682Z,40.70
2018-08-18T15:14:30.845Z,40.90
2018-08-18T15:17:00.015Z,41.40
2018-08-18T15:19:28.978Z,40.30
2018-08-18T15:21:57.617Z,40.70
2018-08-18T15:24:26.400Z,40.50
2018-08-18T15:26:54.957Z,41.00
2018-08-18T15:29:23.546Z,41.20
2018-08-18T15:31:52.761Z,41.10
2018-08-18T15:34:22.567Z,40.90
2018-08-18T15:36:51.137Z,41.20
2018-08-18T15:39:20.391Z,42.50
2018-08-18T15:41:49.911Z,41.80
2018-08-18T15:44:18.607Z,40.80
2018-08-18T15:46:50.623Z,40.30
2018-08-18T15:49:19.628Z,39.70
2018-08-18T15:51:48.198Z,40.50
2018-08-18T15:54:16.921Z,41.40
2018-08-18T15:56:46.176Z,41.30
2018-08-18T15:59:15.281Z,40.60
2018-08-18T16:01:44.144Z,40.60
2018-08-18T16:04:12.882Z,40.30
2018-08-18T16:06:41.560Z,41.00
2018-08-18T16:09:10.094Z,41.60
2018-08-18T16:11:38.688Z,41.00
2018-08-18T16:14:08.376Z,41.00
2018-08-18T16:16:52.429Z,41.10
2018-08-18T16:19:20.988Z,43.00
2018-08-18T16:21:49.538Z,42.70
2018-08-18T16:24:30.628Z,43.20
2018-08-18T16:26:59.872Z,44.00
2018-08-18T16:29:28.425Z,44.30
2018-08-18T16:32:12.214Z,44.10
2018-08-18T16:34:42.670Z,44.10
2018-08-18T16:37:11.372Z,45.20
2018-08-18T16:39:40.657Z,44.70
2018-08-18T16:42:09.916Z,45.10
2018-08-18T16:44:38.664Z,45.90
2018-08-18T16:47:11.290Z,46.30
2018-08-18T16:49:41.544Z,46.00
2018-08-18T16:52:10.503Z,45.40
2018-08-18T16:54:41.026Z,46.30
2018-08-18T16:57:09.736Z,46.70
2018-08-18T16:59:39.522Z,47.10
2018-08-18T17:02:19.086Z,48.40
2018-08-18T17:04:47.911Z,48.20
2018-08-18T17:07:23.469Z,48.30
2018-08-18T17:09:53.796Z,49.20
2018-08-18T17:12:35.168Z,49.00
2018-08-18T17:15:03.830Z,49.20
2018-08-18T17:17:34.969Z,49.20
2018-08-18T17:20:04.044Z,49.60
2018-08-18T17:22:32.976Z,50.20
2018-08-18T17:25:02.604Z,50.90
2018-08-18T17:27:31.889Z,50.80
2018-08-18T17:30:03.033Z,51.10
2018-08-18T17:32:32.144Z,51.40
2018-08-18T17:35:00.965Z,51.10
2018-08-18T17:37:29.781Z,52.00
2018-08-18T17:39:58.763Z,51.80
2018-08-18T17:42:28.029Z,52.20
2018-08-18T17:44:57.340Z,52.40
2018-08-18T17:47:26.108Z,52.40
2018-08-18T17:49:58.752Z,52.80
2018-08-18T17:52:29.551Z,52.70
2018-08-18T17:55:09.589Z,53.30
2018-08-18T17:57:40.242Z,53.60
2018-08-18T18:00:15.940Z,53.70
2018-08-18T18:02:52.122Z,54.20
2018-08-18T18:08:20.050Z,55.40
2018-08-18T18:10:54.048Z,55.30
2018-08-18T18:13:28.062Z,55.60
2018-08-18T18:15:57.464Z,55.90
2018-08-18T18:18:34.997Z,56.10
2018-08-18T18:21:05.161Z,56.60
2018-08-18T18:23:35.682Z,57.00
2018-08-18T18:26:05.391Z,57.20
2018-08-18T18:28:35.041Z,57.30
2018-08-18T18:31:07.133Z,57.50
2018-08-18T18:33:36.778Z,57.80
2018-08-18T18:36:06.310Z,57.80
2018-08-18T18:38:49.565Z,58.00
2018-08-18T18:41:19.054Z,58.90
2018-08-18T18:43:59.297Z,58.90
2018-08-18T18:46:27.906Z,59.50
2018-08-18T18:48:56.783Z,59.60
2018-08-18T18:51:25.381Z,60.50
2018-08-18T18:53:56.952Z,60.80
2018-08-18T18:56:25.509Z,60.40
2018-08-18T18:58:54.057Z,60.90
2018-08-18T19:01:22.590Z,62.60
2018-08-18T19:03:51.148Z,62.30
2018-08-18T19:06:19.718Z,62.90
2018-08-18T19:08:58.957Z,61.70
2018-08-18T19:11:28.011Z,63.50
2018-08-18T19:14:00.943Z,63.10
2018-08-18T19:16:29.579Z,63.20
2018-08-18T19:18:58.239Z,63.50
2018-08-18T19:21:33.409Z,63.40
2018-08-18T19:24:08.226Z,64.20
2018-08-18T19:26:46.704Z,63.70
2018-08-18T19:29:15.344Z,65.60
2018-08-18T19:31:44.006Z,64.60
2018-08-18T19:34:13.998Z,66.00
2018-08-18T19:36:54.562Z,65.50
2018-08-18T19:39:25.447Z,65.50
2018-08-18T19:41:55.973Z,66.00
2018-08-18T19:44:24.512Z,67.10
2018-08-18T19:46:58.041Z,66.90
2018-08-18T19:49:35.707Z,66.10
2018-08-18T19:52:08.510Z,66.90
2018-08-18T19:54:37.065Z,66.90
2018-08-18T19:57:05.652Z,67.00
2018-08-18T19:59:34.262Z,67.80
2018-08-18T20:02:03.008Z,67.90
2018-08-18T20:04:33.295Z,67.80
2018-08-18T20:07:01.929Z,68.20
2018-08-18T20:09:30.508Z,68.50
2018-08-18T20:11:59.221Z,68.30
2018-08-18T20:14:28.635Z,68.60
2018-08-18T20:16:59.439Z,68.50
2018-08-18T20:19:30.901Z,69.00
2018-08-18T20:22:01.484Z,68.30
2018-08-18T20:24:30.310Z,69.00
2018-08-18T20:26:58.890Z,69.40
2018-08-18T20:29:30.682Z,69.40
2018-08-18T20:32:05.847Z,69.70
2018-08-18T20:34:34.611Z,69.20
2018-08-18T20:37:03.522Z,69.00
2018-08-18T20:39:37.364Z,68.90
2018-08-18T20:42:06.371Z,70.20
2018-08-18T20:44:41.325Z,68.80
2018-08-18T20:47:14.548Z,69.40
2018-08-18T20:49:43.165Z,70.30
2018-08-18T20:52:17.030Z,70.40
2018-08-18T20:54:45.677Z,70.50
2018-08-18T20:57:23.986Z,70.20
2018-08-18T20:59:52.954Z,70.90
2018-08-18T21:02:21.683Z,71.40
2018-08-18T21:05:05.703Z,72.70
2018-08-18T21:07:35.240Z,71.80
2018-08-18T21:10:11.518Z,72.50
2018-08-18T21:12:45.309Z,73.10
2018-08-18T21:15:14.246Z,73.30
2018-08-18T21:17:42.869Z,73.90
2018-08-18T21:20:15.390Z,74.00
2018-08-18T21:22:43.965Z,74.00
2018-08-18T21:25:13.495Z,73.90
2018-08-18T21:27:42.383Z,73.80
2018-08-18T21:30:16.893Z,74.90
2018-08-18T21:32:45.450Z,74.20
2018-08-18T21:35:13.991Z,73.70
2018-08-18T21:37:42.670Z,74.80
2018-08-18T21:40:11.303Z,74.70
2018-08-18T21:42:39.873Z,75.00
2018-08-18T21:45:12.318Z,76.00
2018-08-18T21:47:40.863Z,75.30
2018-08-18T21:50:09.457Z,75.50
2018-08-18T21:52:37.989Z,75.60
2018-08-18T21:55:06.557Z,74.90
2018-08-18T21:57:49.724Z,75.80
2018-08-18T22:00:18.338Z,76.00
2018-08-18T22:02:46.841Z,76.40
2018-08-18T22:05:15.342Z,76.90
2018-08-18T22:07:50.597Z,76.80
2018-08-18T22:10:19.129Z,77.00
2018-08-18T22:12:47.734Z,77.40
2018-08-18T22:15:18.505Z,77.60
2018-08-18T22:17:47.841Z,77.80
2018-08-18T22:20:17.584Z,78.70
2018-08-18T22:22:46.161Z,78.90
2018-08-18T22:25:15.192Z,78.80
2018-08-18T22:27:44.010Z,78.40
2018-08-18T22:30:14.909Z,78.60
2018-08-18T22:32:44.623Z,79.50
2018-08-18T22:35:13.814Z,80.20
2018-08-18T22:37:42.608Z,80.40
2018-08-18T22:40:11.809Z,80.50
2018-08-18T22:42:40.361Z,81.20
2018-08-18T22:45:18.982Z,81.20
2018-08-18T22:47:47.521Z,81.70
2018-08-18T22:50:16.185Z,82.40
2018-08-18T22:52:47.302Z,82.30
2018-08-18T22:55:16.130Z,83.00
2018-08-18T22:57:52.821Z,83.20
2018-08-18T23:00:22.260Z,84.00
2018-08-18T23:02:50.965Z,84.20
2018-08-18T23:05:20.244Z,84.70
2018-08-18T23:07:50.533Z,85.80
2018-08-18T23:10:19.113Z,84.90
2018-08-18T23:12:47.732Z,84.80
2018-08-18T23:15:16.253Z,84.90
2018-08-18T23:17:44.792Z,85.30
2018-08-18T23:20:13.333Z,85.00
2018-08-18T23:22:56.244Z,84.90
2018-08-18T23:25:26.125Z,85.50
2018-08-18T23:27:55.037Z,85.60
2018-08-18T23:30:28.861Z,86.30
2018-08-18T23:32:57.399Z,86.00
2018-08-18T23:35:27.339Z,86.40
2018-08-18T23:37:56.337Z,86.20
2018-08-18T23:40:24.961Z,86.20
2018-08-18T23:42:53.589Z,86.60
2018-08-18T23:45:22.529Z,87.50
2018-08-18T23:47:56.997Z,87.50
2018-08-18T23:50:26.861Z,87.60
2018-08-18T23:53:16.737Z,88.30
2018-08-18T23:55:49.853Z,88.80
2018-08-18T23:58:21.341Z,89.10
